Time;durP1;ratioP1;P1;durP2;ratioP2;P2;SDS_P1;SDS_P2;PMS_P1;PMS_P2;Temp;Humidity;BMP_temperature;BMP_pressure;BME280_temperature;BME280_humidity;BME280_pressure;Samples;Min_cycle;Max_cycle;Signal;HPM_P1;HPM_P2
2023/07/06 00:01:09;;;;;;;6.18;3.55;;;;;;;9.65;100.00;93242.81;2507010;23;20090;-87
2023/07/06 00:02:29;;;;;;;4.70;3.33;;;;;;;9.57;100.00;93236.84;2524156;23;20017;-85
2023/07/06 00:04:11;;;;;;;6.88;3.80;;;;;;;9.57;100.00;93242.94;2520097;23;20421;-86
2023/07/06 00:05:35;;;;;;;8.15;3.90;;;;;;;9.44;100.00;93247.34;2514469;23;20011;-86
2023/07/06 00:06:45;;;;;;;10.10;4.20;;;;;;;9.38;100.00;93246.28;2520462;23;20006;-83
2023/07/06 00:08:03;;;;;;;;;;;;;;;9.38;100.00;93246.28;2531139;23;20085;-81
2023/07/06 00:09:20;;;;;;;4.90;3.70;;;;;;;9.33;100.00;93244.06;2508497;23;20380;-85
2023/07/06 00:10:34;;;;;;;6.25;3.88;;;;;;;9.39;100.00;93244.34;2523512;23;20547;-84
2023/07/06 00:11:50;;;;;;;6.07;3.67;;;;;;;9.26;100.00;93247.63;2529259;23;20010;-86
2023/07/06 00:13:10;;;;;;;6.93;3.58;;;;;;;9.34;100.00;93245.56;2520273;23;20015;-84
2023/07/06 00:14:30;;;;;;;6.00;3.65;;;;;;;9.35;100.00;93244.44;2510325;23;20110;-84
2023/07/06 00:15:41;;;;;;;;;;;;;;;9.22;100.00;93244.25;2513141;23;20127;-85
2023/07/06 00:17:17;;;;;;;6.28;3.42;;;;;;;9.34;100.00;93245.56;2520570;23;20385;-86
2023/07/06 00:18:22;;;;;;;8.45;4.22;;;;;;;9.30;100.00;93240.28;2505197;23;20010;-84
2023/07/06 00:19:35;;;;;;;8.48;3.92;;;;;;;9.18;100.00;93242.78;2509350;23;20011;-85
2023/07/06 00:20:49;;;;;;;6.25;3.55;;;;;;;9.20;100.00;93243.13;2519963;23;20085;-85
2023/07/06 00:22:03;;;;;;;6.90;3.60;;;;;;;9.15;100.00;93239.00;2520253;23;20067;-85
2023/07/06 00:23:32;;;;;;;7.15;3.33;;;;;;;9.13;100.00;93246.66;2509151;23;20090;-86
2023/07/06 00:24:47;;;;;;;5.97;3.67;;;;;;;9.25;100.00;93248.00;2521446;23;20018;-83
2023/07/06 00:25:57;;;;;;;5.40;3.53;;;;;;;9.28;100.00;93236.53;2508161;23;20077;-83
2023/07/06 00:27:17;;;;;;;10.20;3.88;;;;;;;9.22;100.00;93238.91;2488782;23;20510;-85
2023/07/06 00:28:51;;;;;;;8.10;4.00;;;;;;;9.20;100.00;93238.53;2505055;23;20063;-86
2023/07/06 00:31:08;;;;;;;8.07;3.60;;;;;;;9.20;100.00;93233.22;2502535;23;20030;-85
2023/07/06 00:32:15;;;;;;;;;;;;;;;9.21;100.00;93239.28;2504646;23;20109;-84
2023/07/06 00:33:18;;;;;;;8.40;3.88;;;;;;;9.12;100.00;93237.13;2532387;23;19909;-84
2023/07/06 00:34:45;;;;;;;6.88;3.58;;;;;;;9.04;100.00;93238.38;2532757;23;20013;-85
2023/07/06 00:35:54;;;;;;;7.47;3.63;;;;;;;9.01;100.00;93237.28;2520049;23;20089;-86
2023/07/06 00:37:10;;;;;;;6.47;3.50;;;;;;;8.98;100.00;93238.09;2520505;23;20441;-85
2023/07/06 00:38:51;;;;;;;7.30;4.05;;;;;;;8.96;100.00;93240.41;2517726;23;20335;-84
2023/07/06 00:40:24;;;;;;;7.15;3.65;;;;;;;8.92;100.00;93236.28;2528247;23;20005;-85
2023/07/06 00:41:39;;;;;;;7.28;3.78;;;;;;;8.78;100.00;93243.31;2520928;23;20006;-84
2023/07/06 00:43:09;;;;;;;7.65;4.25;;;;;;;8.75;100.00;93238.03;2509620;23;20038;-85
2023/07/06 00:44:54;;;;;;;5.75;3.50;;;;;;;8.80;100.00;93234.91;2502976;23;20023;-84
2023/07/06 00:46:19;;;;;;;6.20;3.70;;;;;;;8.76;100.00;93237.63;2517170;23;20018;-86
2023/07/06 00:47:43;;;;;;;6.10;3.10;;;;;;;8.69;100.00;93239.59;2500877;23;20034;-84
2023/07/06 00:48:59;;;;;;;5.43;3.50;;;;;;;8.76;100.00;93242.94;2512561;23;20086;-86
2023/07/06 00:50:31;;;;;;;6.30;3.83;;;;;;;8.64;100.00;93237.38;2508981;23;20019;-84
2023/07/06 00:51:44;;;;;;;7.53;3.58;;;;;;;8.45;100.00;93238.78;2509716;23;20009;-86
2023/07/06 00:53:21;;;;;;;5.85;3.55;;;;;;;8.58;100.00;93229.09;2499337;23;20039;-83
2023/07/06 00:54:40;;;;;;;8.65;3.55;;;;;;;8.68;100.00;93230.09;2503717;23;20018;-84
2023/07/06 00:55:59;;;;;;;6.95;3.60;;;;;;;8.68;100.00;93238.84;2513232;23;20006;-86
2023/07/06 00:57:14;;;;;;;4.90;3.13;;;;;;;8.60;100.00;93221.44;2511005;23;20418;-84
2023/07/06 00:58:31;;;;;;;7.90;4.03;;;;;;;8.56;100.00;93228.75;2516515;23;20030;-85
2023/07/06 00:59:49;;;;;;;6.45;3.80;;;;;;;8.68;100.00;93238.09;2511621;23;20006;-84
2023/07/06 01:01:13;;;;;;;8.73;4.15;;;;;;;8.69;100.00;93226.28;2508197;23;20390;-83
2023/07/06 01:03:06;;;;;;;8.05;4.32;;;;;;;8.68;100.00;93227.44;2504312;23;20357;-84
2023/07/06 01:04:20;;;;;;;9.60;3.97;;;;;;;8.63;100.00;93225.97;2529646;23;20009;-85
2023/07/06 01:05:33;;;;;;;7.68;3.85;;;;;;;8.65;100.00;93225.56;2516568;23;20389;-84
2023/07/06 01:06:49;;;;;;;8.00;3.63;;;;;;;8.61;100.00;93222.97;2510419;23;20512;-87
2023/07/06 01:08:28;;;;;;;6.88;3.85;;;;;;;8.46;100.00;93227.72;2519817;23;20385;-85
2023/07/06 01:09:39;;;;;;;7.32;4.10;;;;;;;8.55;100.00;93227.22;2508114;23;20033;-86
2023/07/06 01:10:53;;;;;;;7.68;3.80;;;;;;;8.58;100.00;93226.44;2510154;23;20783;-83
2023/07/06 01:12:06;;;;;;;5.90;3.83;;;;;;;8.68;100.00;93222.88;2510889;23;20007;-84
2023/07/06 01:13:25;;;;;;;7.28;4.00;;;;;;;8.68;100.00;93217.53;2499227;23;20015;-83
2023/07/06 01:14:50;;;;;;;6.80;3.50;;;;;;;8.65;100.00;93221.03;2516245;23;20102;-85
2023/07/06 01:16:28;;;;;;;9.07;3.97;;;;;;;8.50;100.00;93214.34;2516091;23;20002;-86
2023/07/06 01:18:21;;;;;;;6.93;3.63;;;;;;;8.50;100.00;93222.34;2501085;23;20054;-85
2023/07/06 01:21:53;;;;;;;6.38;3.67;;;;;;;8.42;100.00;93211.00;2512959;23;20009;-87
2023/07/06 01:23:26;;;;;;;6.78;3.70;;;;;;;8.24;100.00;93215.75;2525279;23;20065;-84
2023/07/06 01:25:09;;;;;;;6.68;4.00;;;;;;;8.26;100.00;93208.91;2520471;23;20006;-84
2023/07/06 01:26:32;;;;;;;7.40;3.92;;;;;;;8.28;100.00;93211.91;2500566;23;20014;-84
2023/07/06 01:28:13;;;;;;;9.57;3.90;;;;;;;8.37;100.00;93203.47;2505402;23;20040;-84
2023/07/06 01:30:25;;;;;;;5.70;3.72;;;;;;;8.28;100.00;93203.16;2504222;23;20034;-84
2023/07/06 01:31:44;;;;;;;8.45;4.15;;;;;;;8.13;100.00;93204.50;2520154;23;20006;-85
2023/07/06 01:33:17;;;;;;;8.05;4.10;;;;;;;8.23;100.00;93201.69;2521025;23;20006;-87
2023/07/06 01:34:53;;;;;;;9.20;3.85;;;;;;;8.26;100.00;93202.81;2512325;23;20057;-83
2023/07/06 01:36:50;;;;;;;6.32;3.30;;;;;;;8.38;100.00;93207.63;2528445;23;20002;-88
2023/07/06 01:38:11;;;;;;;9.10;4.25;;;;;;;8.35;100.00;93205.00;2484413;23;20679;-84
2023/07/06 01:39:34;;;;;;;7.53;3.83;;;;;;;8.40;100.00;93204.59;2508024;23;20014;-86
2023/07/06 01:40:51;;;;;;;7.15;4.30;;;;;;;8.38;100.00;93204.97;2513578;23;20006;-86
2023/07/06 01:42:36;;;;;;;7.07;4.05;;;;;;;8.24;100.00;93205.88;2513703;23;20430;-85
2023/07/06 01:43:48;;;;;;;9.90;3.92;;;;;;;8.27;100.00;93209.66;2521495;23;20006;-84
2023/07/06 01:45:42;;;;;;;9.05;4.40;;;;;;;8.21;100.00;93208.56;2512258;23;20002;-86
2023/07/06 01:47:04;;;;;;;9.27;4.45;;;;;;;8.12;100.00;93203.75;2530770;23;20092;-86
2023/07/06 01:48:16;;;;;;;10.88;4.32;;;;;;;8.11;100.00;93214.78;2520311;23;20013;-85
2023/07/06 01:49:28;;;;;;;7.53;4.18;;;;;;;8.17;100.00;93207.88;2498675;23;20000;-84
2023/07/06 01:50:56;;;;;;;8.02;4.40;;;;;;;7.90;100.00;93205.09;2490719;23;20007;-85
2023/07/06 01:52:29;;;;;;;6.60;4.35;;;;;;;8.01;100.00;93213.75;2519406;23;20070;-84
2023/07/06 01:54:18;;;;;;;7.15;4.43;;;;;;;8.05;100.00;93204.56;2518218;23;19999;-84
2023/07/06 01:56:12;;;;;;;9.60;4.07;;;;;;;8.10;100.00;93206.03;2507435;23;20074;-85
2023/07/06 01:57:35;;;;;;;7.95;4.22;;;;;;;8.07;100.00;93206.81;2500087;23;20101;-84
2023/07/06 01:59:08;;;;;;;9.30;4.35;;;;;;;8.02;100.00;93208.00;2508405;23;20010;-85
2023/07/06 02:00:30;;;;;;;7.97;4.65;;;;;;;7.93;100.00;93204.31;2514025;23;20011;-86
2023/07/06 02:02:07;;;;;;;12.30;4.55;;;;;;;8.01;100.00;93213.75;2512639;23;20056;-85
2023/07/06 02:03:19;;;;;;;7.72;4.15;;;;;;;8.03;100.00;93206.88;2507413;23;20122;-83
2023/07/06 02:04:52;;;;;;;8.50;4.40;;;;;;;8.00;100.00;93210.31;2510491;23;20176;-85
2023/07/06 02:06:13;;;;;;;9.57;4.53;;;;;;;7.90;100.00;93202.44;2528243;23;20069;-85
2023/07/06 02:07:31;;;;;;;18.85;4.25;;;;;;;7.79;100.00;93205.22;2507628;23;20509;-85
2023/07/06 02:08:45;;;;;;;7.93;4.25;;;;;;;7.84;100.00;93202.13;2502731;23;20011;-85
2023/07/06 02:10:01;;;;;;;6.95;4.13;;;;;;;7.86;100.00;93215.03;2508640;23;20327;-85
2023/07/06 02:11:12;;;;;;;9.30;4.63;;;;;;;7.84;100.00;93207.44;2498758;23;20087;-86
2023/07/06 02:12:28;;;;;;;8.27;4.00;;;;;;;7.82;100.00;93209.75;2514234;23;20081;-86
2023/07/06 02:13:37;;;;;;;10.15;4.68;;;;;;;7.86;100.00;93205.16;2517092;23;19998;-87
2023/07/06 02:14:48;;;;;;;7.97;4.47;;;;;;;7.89;100.00;93206.25;2509280;23;20085;-84
2023/07/06 02:16:04;;;;;;;7.22;3.75;;;;;;;7.92;100.00;93200.91;2522312;23;20468;-85
2023/07/06 02:17:11;;;;;;;8.82;5.10;;;;;;;7.96;100.00;93201.63;2516767;23;20010;-85
2023/07/06 02:18:19;;;;;;;9.25;4.05;;;;;;;7.88;100.00;93202.84;2499086;23;20011;-85
2023/07/06 02:19:49;;;;;;;9.82;4.32;;;;;;;7.87;100.00;93203.25;2509219;23;20154;-84
2023/07/06 02:21:01;;;;;;;;;;;;;;;7.86;100.00;93202.50;2496429;23;20010;-84
2023/07/06 02:22:10;;;;;;;6.22;4.05;;;;;;;7.87;100.00;93209.31;2508566;23;19906;-85
2023/07/06 02:23:23;;;;;;;9.93;4.40;;;;;;;7.73;100.00;93204.16;2518311;23;20397;-84
2023/07/06 02:24:39;;;;;;;11.15;5.22;;;;;;;7.69;100.00;93204.19;2502236;23;20146;-85
2023/07/06 02:25:53;;;;;;;7.68;4.20;;;;;;;7.73;100.00;93194.25;2498629;23;20094;-86
2023/07/06 02:27:03;;;;;;;8.05;4.07;;;;;;;7.73;100.00;93199.56;2488993;23;20012;-85
2023/07/06 02:28:18;;;;;;;6.43;4.25;;;;;;;7.78;100.00;93193.81;2487760;23;20007;-88
2023/07/06 02:29:43;;;;;;;7.80;4.15;;;;;;;7.81;100.00;93198.34;2507285;23;20788;-85
2023/07/06 02:31:05;;;;;;;6.05;4.28;;;;;;;7.73;100.00;93198.81;2507329;23;20010;-84
2023/07/06 02:32:16;;;;;;;5.35;3.65;;;;;;;7.73;100.00;93196.16;2504840;23;20097;-85
2023/07/06 02:33:38;;;;;;;;;;;;;;;;;;;;;
2023/07/06 02:34:45;;;;;;;9.55;4.38;;;;;;;7.69;100.00;93195.44;2512094;23;20007;-86
2023/07/06 02:36:11;;;;;;;7.47;4.20;;;;;;;7.58;100.00;93198.19;2510554;23;20003;-85
2023/07/06 02:37:21;;;;;;;6.97;4.00;;;;;;;7.63;100.00;93199.66;2524468;23;20453;-85
2023/07/06 02:38:31;;;;;;;7.93;4.07;;;;;;;7.61;100.00;93194.75;2514692;23;20398;-85
2023/07/06 02:39:58;;;;;;;6.90;4.53;;;;;;;7.53;100.00;93198.63;2499790;23;20016;-86
2023/07/06 02:41:25;;;;;;;6.22;3.85;;;;;;;7.59;100.00;93205.00;2501542;23;20443;-87
2023/07/06 02:42:53;;;;;;;8.13;4.10;;;;;;;7.52;100.00;93192.53;2495643;23;20821;-86
2023/07/06 02:44:02;;;;;;;5.78;3.88;;;;;;;7.56;100.00;93193.28;2504855;23;20041;-86
2023/07/06 02:45:11;;;;;;;5.90;3.80;;;;;;;7.58;100.00;93198.19;2509614;23;20438;-84
2023/07/06 02:46:26;;;;;;;8.18;4.45;;;;;;;7.58;100.00;93193.63;2519289;23;20012;-87
2023/07/06 02:47:41;;;;;;;8.02;4.35;;;;;;;7.64;100.00;93193.19;2510323;23;20022;-84
2023/07/06 02:48:51;;;;;;;5.60;3.95;;;;;;;7.63;100.00;93183.69;2511343;23;20067;-86
2023/07/06 02:50:20;;;;;;;;;;;;;;;7.55;100.00;93190.97;2498904;23;20362;-86
2023/07/06 02:51:30;;;;;;;7.47;4.07;;;;;;;7.57;100.00;93191.34;2513325;23;19913;-86
2023/07/06 02:52:37;;;;;;;8.05;4.60;;;;;;;7.44;100.00;93185.03;2505889;23;20027;-86
2023/07/06 02:54:00;;;;;;;8.93;3.95;;;;;;;7.37;100.00;93183.16;2498832;23;20025;-86
2023/07/06 02:55:16;;;;;;;6.97;4.80;;;;;;;7.48;100.00;93183.09;2507501;23;20011;-84
2023/07/06 02:56:45;;;;;;;6.88;4.30;;;;;;;7.51;100.00;93180.41;2523644;23;20010;-86
2023/07/06 02:58:15;;;;;;;10.05;4.35;;;;;;;7.47;100.00;93179.66;2513966;23;20422;-84
2023/07/06 02:59:29;;;;;;;6.35;4.15;;;;;;;7.53;100.00;93187.97;2498130;23;20414;-85
2023/07/06 03:00:50;;;;;;;8.80;4.40;;;;;;;7.54;100.00;93176.94;2489616;23;20015;-85
2023/07/06 03:02:22;;;;;;;7.15;4.65;;;;;;;7.55;100.00;93181.13;2511549;23;20033;-85
2023/07/06 03:03:38;;;;;;;7.32;4.40;;;;;;;7.47;100.00;93174.34;2519570;23;20599;-85
2023/07/06 03:04:47;;;;;;;7.43;4.40;;;;;;;7.51;100.00;93174.31;2510654;23;20356;-85
2023/07/06 03:06:12;;;;;;;6.35;4.05;;;;;;;7.38;100.00;93170.66;2491321;23;20086;-85
2023/07/06 03:07:34;;;;;;;8.02;4.13;;;;;;;7.34;100.00;93175.25;2494945;23;20089;-86
2023/07/06 03:09:00;;;;;;;7.15;4.07;;;;;;;7.31;100.00;93176.78;2507429;23;20006;-84
2023/07/06 03:10:12;;;;;;;7.05;4.07;;;;;;;7.34;100.00;93169.91;2498188;23;20011;-86
2023/07/06 03:11:36;;;;;;;7.00;3.70;;;;;;;7.37;100.00;93169.88;2500232;23;20527;-83
2023/07/06 03:12:51;;;;;;;7.57;3.88;;;;;;;7.42;100.00;93174.78;2507785;23;20073;-84
2023/07/06 03:14:06;;;;;;;6.30;4.00;;;;;;;7.41;100.00;93172.50;2510460;23;20457;-86
2023/07/06 03:15:18;;;;;;;6.97;4.18;;;;;;;7.30;100.00;93167.28;2508073;23;20422;-85
2023/07/06 03:16:39;;;;;;;7.25;4.13;;;;;;;7.29;100.00;93165.78;2488523;23;20012;-87
2023/07/06 03:17:51;;;;;;;6.63;3.70;;;;;;;7.36;100.00;93178.25;2493697;23;20744;-85
2023/07/06 03:19:05;;;;;;;9.38;4.10;;;;;;;7.35;100.00;93172.19;2513448;23;20006;-84
2023/07/06 03:20:19;;;;;;;8.52;4.30;;;;;;;7.35;100.00;93174.09;2518583;23;20127;-85
2023/07/06 03:21:30;;;;;;;7.18;4.10;;;;;;;7.35;100.00;93169.53;2513544;23;20347;-85
2023/07/06 03:22:44;;;;;;;5.75;3.95;;;;;;;7.31;100.00;93174.09;2508931;23;20077;-86
2023/07/06 03:24:12;;;;;;;7.93;4.50;;;;;;;7.29;100.00;93179.84;2489003;23;20011;-86
2023/07/06 03:25:33;;;;;;;7.00;3.80;;;;;;;7.33;100.00;93171.81;2520284;23;20010;-87
2023/07/06 03:26:46;;;;;;;9.30;4.45;;;;;;;7.27;100.00;93173.38;2516357;23;20038;-85
2023/07/06 03:27:59;;;;;;;6.57;4.25;;;;;;;7.28;100.00;93174.88;2501804;23;20542;-86
2023/07/06 03:29:30;;;;;;;;;;;;;;;;;;;;;
2023/07/06 03:30:42;;;;;;;5.13;3.58;;;;;;;7.31;100.00;93172.19;2520384;23;20010;-85
2023/07/06 03:31:53;;;;;;;8.07;4.18;;;;;;;7.25;100.00;93173.78;2519000;23;20042;-85
2023/07/06 03:33:11;;;;;;;5.85;3.92;;;;;;;7.26;100.00;93172.63;2523826;23;20012;-87
2023/07/06 03:34:27;;;;;;;7.07;3.85;;;;;;;7.22;100.00;93177.22;2516979;23;20008;-85
2023/07/06 03:35:37;;;;;;;6.82;4.10;;;;;;;7.22;100.00;93181.78;2504079;23;20082;-85
2023/07/06 03:36:56;;;;;;;6.35;3.95;;;;;;;7.10;100.00;93179.59;2498878;23;20566;-84
2023/07/06 03:38:16;;;;;;;7.88;4.43;;;;;;;7.11;100.00;93184.50;2501613;23;20431;-84
2023/07/06 03:39:29;;;;;;;8.20;3.97;;;;;;;7.12;100.00;93187.94;2516929;23;20006;-86
2023/07/06 03:40:38;;;;;;;12.68;4.32;;;;;;;7.14;100.00;93181.06;2532637;23;20013;-83
2023/07/06 03:41:49;;;;;;;7.22;3.92;;;;;;;7.19;100.00;93187.88;2518583;23;20519;-85
2023/07/06 03:43:01;;;;;;;10.45;4.20;;;;;;;7.22;100.00;93184.44;2501823;23;20015;-84
2023/07/06 03:44:24;;;;;;;7.53;4.05;;;;;;;7.20;100.00;93181.41;2498780;23;20830;-86
2023/07/06 03:45:51;;;;;;;6.75;3.92;;;;;;;7.25;100.00;93184.41;2504932;23;20133;-85
2023/07/06 03:47:06;;;;;;;6.70;4.10;;;;;;;7.29;100.00;93177.16;2501115;23;20051;-84
2023/07/06 03:48:16;;;;;;;5.95;3.63;;;;;;;7.27;100.00;93173.38;2502546;23;20011;-85
2023/07/06 03:49:44;;;;;;;7.15;3.70;;;;;;;7.26;100.00;93177.94;2512801;23;20002;-86
2023/07/06 03:51:02;;;;;;;6.28;4.07;;;;;;;7.26;100.00;93174.53;2519753;23;20006;-85
2023/07/06 03:52:16;;;;;;;8.68;4.38;;;;;;;7.25;100.00;93170.38;2520379;23;20013;-85
2023/07/06 03:53:37;;;;;;;8.45;4.35;;;;;;;7.18;100.00;93178.41;2520173;23;20021;-86
2023/07/06 03:54:54;;;;;;;5.47;3.90;;;;;;;7.09;100.00;93175.44;2508663;23;20097;-86
2023/07/06 03:56:10;;;;;;;6.82;3.97;;;;;;;7.01;100.00;93172.81;2513229;23;20010;-85
2023/07/06 03:57:24;;;;;;;9.80;4.40;;;;;;;7.15;100.00;93173.84;2518954;23;20010;-87
2023/07/06 03:58:38;;;;;;;6.13;3.70;;;;;;;7.10;100.00;93175.03;2520235;23;20457;-86
2023/07/06 04:00:07;;;;;;;11.85;3.90;;;;;;;7.05;100.00;93181.53;2508495;23;20003;-86
2023/07/06 04:01:19;;;;;;;9.40;3.88;;;;;;;7.04;100.00;93172.03;2520471;23;20021;-85
2023/07/06 04:02:34;;;;;;;9.02;3.97;;;;;;;7.10;100.00;93180.34;2530326;23;20008;-85
2023/07/06 04:03:45;;;;;;;5.80;3.92;;;;;;;7.14;100.00;93182.97;2511174;23;20025;-85
2023/07/06 04:05:00;;;;;;;7.57;3.75;;;;;;;7.23;100.00;93177.97;2511278;23;20085;-88
2023/07/06 04:06:10;;;;;;;5.32;3.70;;;;;;;7.18;100.00;93181.06;2498471;23;20054;-86
2023/07/06 04:07:24;;;;;;;7.85;4.00;;;;;;;7.17;100.00;93175.00;2489771;23;20035;-86
2023/07/06 04:08:27;;;;;;;11.77;3.92;;;;;;;7.22;100.00;93181.78;2487307;23;20019;-86
2023/07/06 04:09:42;;;;;;;7.40;3.72;;;;;;;7.17;100.00;93176.88;2490447;23;20422;-85
2023/07/06 04:11:34;;;;;;;6.38;4.28;;;;;;;7.19;100.00;93182.56;2491255;23;20015;-87
2023/07/06 04:12:42;;;;;;;5.95;3.53;;;;;;;7.20;100.00;93176.09;2513681;23;20006;-85
2023/07/06 04:14:01;;;;;;;7.40;4.20;;;;;;;7.21;100.00;93185.59;2511868;23;20034;-86
2023/07/06 04:15:19;;;;;;;6.53;3.78;;;;;;;7.27;100.00;93181.34;2510527;23;20010;-87
2023/07/06 04:16:40;;;;;;;9.10;4.10;;;;;;;7.29;100.00;93179.06;2511256;23;20703;-84
2023/07/06 04:18:05;;;;;;;6.07;3.83;;;;;;;7.32;100.00;93184.34;2515013;23;20042;-86
2023/07/06 04:19:16;;;;;;;6.35;3.85;;;;;;;7.30;100.00;93184.00;2515858;23;20061;-86
2023/07/06 04:20:27;;;;;;;;;;;;;;;7.36;100.00;93186.97;2513356;23;20007;-86
2023/07/06 04:21:36;;;;;;;12.07;3.45;;;;;;;7.46;100.00;93188.03;2524703;23;20265;-84
2023/07/06 04:23:05;;;;;;;8.93;4.20;;;;;;;7.48;100.00;93189.16;2521570;23;20529;-86
2023/07/06 04:24:36;;;;;;;6.28;3.78;;;;;;;7.50;100.00;93188.75;2507402;23;20025;-86
2023/07/06 04:25:52;;;;;;;9.00;3.92;;;;;;;7.52;100.00;93191.78;2521905;23;20018;-85
2023/07/06 04:27:12;;;;;;;7.78;4.05;;;;;;;7.62;100.00;93196.25;2509585;23;20011;-86
2023/07/06 04:28:23;;;;;;;7.40;4.05;;;;;;;7.74;100.00;93195.00;2513237;23;20441;-85
2023/07/06 04:29:39;;;;;;;8.18;4.05;;;;;;;7.82;100.00;93196.44;2519382;23;20006;-84
2023/07/06 04:30:54;;;;;;;10.25;4.60;;;;;;;7.89;100.00;93201.69;2512068;23;20037;-85
2023/07/06 04:32:23;;;;;;;8.70;4.72;;;;;;;7.98;100.00;93196.66;2507571;23;20010;-85
2023/07/06 04:33:39;;;;;;;11.40;5.15;;;;;;;8.11;100.00;93199.56;2526732;23;20001;-85
2023/07/06 04:34:47;;;;;;;12.32;4.57;;;;;;;8.14;100.00;93195.34;2529535;23;20017;-87
2023/07/06 04:36:02;;;;;;;14.93;4.60;;;;;;;8.21;100.00;93206.69;2520498;23;20120;-85
2023/07/06 04:37:14;;;;;;;12.32;4.50;;;;;;;8.20;100.00;93204.41;2511537;23;20010;-85
2023/07/06 04:38:34;;;;;;;8.52;4.47;;;;;;;8.27;100.00;93196.34;2510362;23;20368;-86
2023/07/06 04:39:50;;;;;;;9.63;4.05;;;;;;;8.35;100.00;93191.69;2520341;23;20002;-85
2023/07/06 04:40:56;;;;;;;8.43;4.25;;;;;;;8.34;100.00;93204.25;2508548;23;20011;-87
2023/07/06 04:42:03;;;;;;;8.18;4.22;;;;;;;8.32;100.00;93199.31;2499554;23;19999;-86
2023/07/06 04:43:05;;;;;;;9.30;4.22;;;;;;;8.41;100.00;93198.09;2496807;23;20035;-86
2023/07/06 04:44:11;;;;;;;7.93;4.18;;;;;;;8.33;100.00;93198.16;2497877;23;20018;-86
2023/07/06 04:45:29;;;;;;;10.70;4.60;;;;;;;8.27;100.00;93194.44;2511450;23;20069;-87
2023/07/06 04:46:34;;;;;;;8.77;4.28;;;;;;;8.34;100.00;93196.25;2508599;23;20010;-88
2023/07/06 04:47:41;;;;;;;7.75;4.30;;;;;;;8.39;100.00;93203.09;2508253;23;20369;-86
2023/07/06 04:48:44;;;;;;;10.02;4.10;;;;;;;8.50;100.00;93195.69;2510864;23;20007;-84
2023/07/06 04:49:48;;;;;;;6.25;4.38;;;;;;;8.54;100.00;93196.41;2508397;23;20062;-86
2023/07/06 04:51:03;;;;;;;7.80;4.32;;;;;;;8.58;100.00;93199.78;2509134;23;20007;-88
2023/07/06 04:52:06;;;;;;;9.30;4.15;;;;;;;8.58;100.00;93195.22;2508027;23;20408;-85
2023/07/06 04:53:13;;;;;;;8.77;4.43;;;;;;;8.60;100.00;93207.38;2508498;23;20331;-87
2023/07/06 04:54:24;;;;;;;9.93;5.00;;;;;;;8.52;100.00;93199.50;2509898;23;20011;-84
2023/07/06 04:55:30;;;;;;;8.65;4.57;;;;;;;8.45;100.00;93206.81;2519256;23;20021;-87
2023/07/06 04:56:39;;;;;;;9.75;4.28;;;;;;;8.49;100.00;93207.53;2512652;23;20010;-86
2023/07/06 04:57:46;;;;;;;9.60;4.38;;;;;;;8.50;100.00;93207.09;2494419;23;20199;-85
2023/07/06 04:58:49;;;;;;;10.88;4.65;;;;;;;8.52;100.00;93209.41;2495946;23;20035;-85
2023/07/06 04:59:56;;;;;;;11.27;4.82;;;;;;;8.57;100.00;93206.28;2506945;23;20058;-85
2023/07/06 05:01:07;;;;;;;11.05;4.95;;;;;;;8.67;100.00;93212.63;2492692;23;20015;-85
2023/07/06 05:02:11;;;;;;;7.78;4.82;;;;;;;8.68;100.00;93200.81;2497550;23;20070;-85
2023/07/06 05:03:12;;;;;;;11.38;4.72;;;;;;;8.79;100.00;93204.09;2506247;23;20691;-88
2023/07/06 05:04:17;;;;;;;9.27;5.07;;;;;;;8.72;100.00;93202.25;2507111;23;20007;-84
2023/07/06 05:05:22;;;;;;;8.25;4.55;;;;;;;8.82;100.00;93197.94;2506960;23;20149;-87
2023/07/06 05:06:26;;;;;;;11.27;4.80;;;;;;;8.77;100.00;93207.13;2505824;23;20420;-86
2023/07/06 05:07:30;;;;;;;8.38;5.03;;;;;;;8.91;100.00;93206.22;2505682;23;20097;-85
2023/07/06 05:08:34;;;;;;;10.40;4.85;;;;;;;8.97;100.00;93209.91;2506509;23;20019;-85
2023/07/06 05:09:36;;;;;;;11.18;4.70;;;;;;;8.94;100.00;93204.63;2506974;23;20466;-86
2023/07/06 05:10:46;;;;;;;9.93;4.70;;;;;;;8.97;100.00;93199.25;2518915;23;20727;-85
2023/07/06 05:11:53;;;;;;;9.13;4.78;;;;;;;9.04;100.00;93201.06;2518296;23;20011;-86
2023/07/06 05:12:58;;;;;;;9.88;4.60;;;;;;;9.12;100.00;93204.38;2508531;23;20290;-85
2023/07/06 05:14:08;;;;;;;8.57;4.70;;;;;;;9.17;100.00;93201.25;2508870;23;20162;-85
2023/07/06 05:15:11;;;;;;;10.02;5.00;;;;;;;9.20;100.00;93208.44;2507290;23;20014;-86
2023/07/06 05:16:15;;;;;;;8.35;4.40;;;;;;;9.24;100.00;93219.81;2495886;23;20027;-84
2023/07/06 05:17:25;;;;;;;10.30;4.53;;;;;;;9.35;100.00;93212.44;2488038;23;20044;-83
2023/07/06 05:18:29;;;;;;;10.93;5.10;;;;;;;9.57;100.00;93210.91;2485832;23;20008;-84
2023/07/06 05:19:32;;;;;;;13.73;5.13;;;;;;;9.69;100.00;93203.47;2509947;23;20069;-86
2023/07/06 05:23:31;;;;;;;12.68;4.78;;;;;;;9.90;100.00;93199.69;2516539;23;20310;-85
2023/07/06 05:24:32;;;;;;;15.02;4.82;;;;;;;9.96;100.00;93196.13;2531512;23;20010;-82
2023/07/06 05:25:38;;;;;;;14.73;4.60;;;;;;;9.95;100.00;93202.63;2526377;23;20011;-85
2023/07/06 05:26:39;;;;;;;13.57;5.38;;;;;;;9.96;100.00;93198.03;2520926;23;20010;-85
2023/07/06 05:27:41;;;;;;;12.15;5.05;;;;;;;9.97;100.00;93208.34;2507546;23;20010;-83
2023/07/06 05:28:42;;;;;;;18.73;4.72;;;;;;;9.95;100.00;93202.63;2507929;23;20284;-83
2023/07/06 05:29:46;;;;;;;10.60;4.70;;;;;;;9.94;100.00;93201.13;2507913;23;20006;-85
2023/07/06 06:09:36;;;;;;;9.80;4.88;;;;;;;12.02;100.00;93206.19;2545648;23;20084;-85
2023/07/06 06:10:38;;;;;;;12.30;5.07;;;;;;;12.08;100.00;93207.22;2521683;23;20452;-84
2023/07/06 06:11:43;;;;;;;14.07;5.82;;;;;;;12.18;100.00;93202.00;2509892;23;20010;-83
2023/07/06 06:12:46;;;;;;;9.98;4.80;;;;;;;12.27;100.00;93213.59;2510263;23;20029;-85
2023/07/06 06:13:49;;;;;;;12.20;4.68;;;;;;;12.32;100.00;93210.41;2509979;23;20366;-85
2023/07/06 06:14:52;;;;;;;10.93;5.28;;;;;;;12.32;100.00;93217.69;2509244;23;20007;-84
2023/07/06 06:15:54;;;;;;;12.02;5.10;;;;;;;12.51;100.00;93208.75;2508744;23;20369;-85
2023/07/06 06:16:57;;;;;;;13.80;5.00;;;;;;;12.56;100.00;93212.84;2508468;23;20111;-83
2023/07/06 06:18:03;;;;;;;10.38;4.85;;;;;;;12.58;100.00;93218.50;2509588;23;20643;-84
2023/07/06 06:19:07;;;;;;;11.77;6.05;;;;;;;12.69;100.00;93213.63;2509591;23;20011;-86
2023/07/06 06:20:10;;;;;;;8.60;4.78;;;;;;;12.83;100.00;93217.81;2509311;23;20035;-83
2023/07/06 06:21:24;;;;;;;9.73;5.07;;;;;;;12.94;100.00;93218.25;2500672;23;20011;-85
2023/07/06 06:22:25;;;;;;;14.45;5.32;;;;;;;13.04;100.00;93216.47;2509942;23;20105;-84
2023/07/06 06:23:29;;;;;;;12.10;5.85;;;;;;;13.10;100.00;93220.09;2507337;23;20006;-87
2023/07/06 06:24:30;;;;;;;7.78;5.10;;;;;;;13.08;100.00;93220.53;2507873;23;20615;-87
2023/07/06 06:25:34;;;;;;;11.48;5.25;;;;;;;13.19;100.00;93222.16;2495522;23;20692;-85
2023/07/06 06:26:36;;;;;;;11.07;5.07;;;;;;;13.23;100.00;93223.56;2496996;23;20159;-83
2023/07/06 06:27:43;;;;;;;11.38;4.93;;;;;;;13.32;100.00;93222.94;2518769;23;20017;-85
2023/07/06 06:28:45;;;;;;;12.85;5.10;;;;;;;13.39;100.00;93222.72;2520762;23;20037;-83
2023/07/06 06:29:46;;;;;;;10.38;4.93;;;;;;;13.40;100.00;93218.84;2519241;23;20329;-85
2023/07/06 06:30:48;;;;;;;9.57;4.75;;;;;;;13.50;100.00;93215.06;2507386;23;20007;-87
2023/07/06 06:31:50;;;;;;;9.45;4.88;;;;;;;13.62;100.00;93220.88;2495193;23;20011;-88
2023/07/06 06:32:51;;;;;;;13.20;5.35;;;;;;;13.66;100.00;93222.25;2495238;23;20455;-83
2023/07/06 06:33:52;;;;;;;13.35;4.82;;;;;;;13.65;100.00;93225.34;2506598;23;20070;-84
2023/07/06 06:34:56;;;;;;;15.93;5.20;;;;;;;13.69;100.00;93213.31;2506086;23;19999;-86
2023/07/06 06:35:58;;;;;;;8.52;4.82;;;;;;;13.80;100.00;93223.72;2506674;23;20014;-85
2023/07/06 06:37:04;;;;;;;8.57;4.60;;;;;;;13.89;100.00;93220.38;2508510;23;20007;-87
2023/07/06 06:38:19;;;;;;;7.78;4.22;;;;;;;14.00;100.00;93218.06;2532975;23;20662;-84
2023/07/06 06:39:20;;;;;;;7.70;4.60;;;;;;;14.06;100.00;93213.66;2546025;23;20005;-84
2023/07/06 06:40:22;;;;;;;8.68;4.85;;;;;;;13.96;100.00;93218.22;2531566;23;20648;-85
2023/07/06 06:41:23;;;;;;;10.00;4.25;;;;;;;13.89;100.00;93212.31;2519651;23;20552;-87
2023/07/06 06:42:30;;;;;;;9.38;4.40;;;;;;;14.10;100.00;93222.38;2531230;23;20463;-85
2023/07/06 06:43:31;;;;;;;11.43;4.13;;;;;;;14.02;100.00;93213.78;2509410;23;20010;-85